sensor_id;sensor_type;location;lat;lon;timestamp;P1;durP1;ratioP1;P2;durP2;ratioP2
10535;SDS011;5316;49.538;8.352;2022-12-05T00:01:42;31.30;;;19.17;;
10535;SDS011;5316;49.538;8.352;2022-12-05T00:04:10;31.90;;;20.73;;
10535;SDS011;5316;49.538;8.352;2022-12-05T00:06:40;31.87;;;20.43;;
10535;SDS011;5316;49.538;8.352;2022-12-05T00:09:08;32.33;;;20.07;;
10535;SDS011;5316;49.538;8.352;2022-12-05T00:11:36;35.10;;;20.93;;
10535;SDS011;5316;49.538;8.352;2022-12-05T00:14:06;31.73;;;19.87;;
10535;SDS011;5316;49.538;8.352;2022-12-05T00:16:34;34.03;;;20.33;;
10535;SDS011;5316;49.538;8.352;2022-12-05T00:19:03;31.57;;;18.97;;
10535;SDS011;5316;49.538;8.352;2022-12-05T00:21:32;34.90;;;21.27;;
10535;SDS011;5316;49.538;8.352;2022-12-05T00:24:03;38.00;;;21.17;;
10535;SDS011;5316;49.538;8.352;2022-12-05T00:26:31;35.63;;;20.50;;
10535;SDS011;5316;49.538;8.352;2022-12-05T00:28:59;32.17;;;20.50;;
10535;SDS011;5316;49.538;8.352;2022-12-05T00:31:26;33.80;;;21.10;;
10535;SDS011;5316;49.538;8.352;2022-12-05T00:33:54;32.13;;;20.07;;
10535;SDS011;5316;49.538;8.352;2022-12-05T00:36:21;35.03;;;20.97;;
10535;SDS011;5316;49.538;8.352;2022-12-05T00:38:49;39.70;;;21.47;;
10535;SDS011;5316;49.538;8.352;2022-12-05T00:41:19;32.83;;;20.90;;
10535;SDS011;5316;49.538;8.352;2022-12-05T00:43:46;34.87;;;21.23;;
10535;SDS011;5316;49.538;8.352;2022-12-05T00:46:14;34.97;;;21.07;;
10535;SDS011;5316;49.538;8.352;2022-12-05T00:48:42;38.83;;;21.60;;
10535;SDS011;5316;49.538;8.352;2022-12-05T00:51:10;33.80;;;19.77;;
10535;SDS011;5316;49.538;8.352;2022-12-05T00:53:38;37.17;;;20.77;;
10535;SDS011;5316;49.538;8.352;2022-12-05T00:56:06;37.13;;;20.27;;
10535;SDS011;5316;49.538;8.352;2022-12-05T00:58:36;41.00;;;20.93;;
10535;SDS011;5316;49.538;8.352;2022-12-05T01:01:07;38.67;;;21.40;;
10535;SDS011;5316;49.538;8.352;2022-12-05T01:03:35;37.60;;;21.20;;
10535;SDS011;5316;49.538;8.352;2022-12-05T01:06:02;35.53;;;20.20;;
10535;SDS011;5316;49.538;8.352;2022-12-05T01:08:30;41.07;;;20.77;;
10535;SDS011;5316;49.538;8.352;2022-12-05T01:10:57;36.30;;;20.27;;
10535;SDS011;5316;49.538;8.352;2022-12-05T01:13:25;39.27;;;21.53;;
10535;SDS011;5316;49.538;8.352;2022-12-05T01:15:54;39.60;;;20.47;;
10535;SDS011;5316;49.538;8.352;2022-12-05T01:18:21;39.83;;;21.57;;
10535;SDS011;5316;49.538;8.352;2022-12-05T01:20:48;36.60;;;20.30;;
10535;SDS011;5316;49.538;8.352;2022-12-05T01:23:15;37.73;;;20.90;;
10535;SDS011;5316;49.538;8.352;2022-12-05T01:25:43;38.30;;;20.70;;
10535;SDS011;5316;49.538;8.352;2022-12-05T01:28:12;34.83;;;20.63;;
10535;SDS011;5316;49.538;8.352;2022-12-05T01:30:39;40.43;;;20.87;;
10535;SDS011;5316;49.538;8.352;2022-12-05T01:33:09;36.83;;;21.43;;
10535;SDS011;5316;49.538;8.352;2022-12-05T01:35:37;37.67;;;20.47;;
10535;SDS011;5316;49.538;8.352;2022-12-05T01:38:05;37.90;;;21.03;;
10535;SDS011;5316;49.538;8.352;2022-12-05T01:40:33;38.50;;;20.90;;
10535;SDS011;5316;49.538;8.352;2022-12-05T01:43:01;39.93;;;21.40;;
10535;SDS011;5316;49.538;8.352;2022-12-05T01:45:30;37.83;;;20.53;;
10535;SDS011;5316;49.538;8.352;2022-12-05T01:47:59;37.53;;;21.40;;
10535;SDS011;5316;49.538;8.352;2022-12-05T01:50:30;35.13;;;20.13;;
10535;SDS011;5316;49.538;8.352;2022-12-05T01:52:58;42.17;;;20.27;;
10535;SDS011;5316;49.538;8.352;2022-12-05T01:55:25;40.17;;;21.23;;
10535;SDS011;5316;49.538;8.352;2022-12-05T01:57:52;37.80;;;20.17;;
10535;SDS011;5316;49.538;8.352;2022-12-05T02:00:21;35.00;;;19.90;;
10535;SDS011;5316;49.538;8.352;2022-12-05T02:02:49;40.10;;;21.13;;
10535;SDS011;5316;49.538;8.352;2022-12-05T02:05:21;36.80;;;21.40;;
10535;SDS011;5316;49.538;8.352;2022-12-05T02:07:53;38.40;;;20.53;;
10535;SDS011;5316;49.538;8.352;2022-12-05T02:10:21;36.07;;;21.13;;
10535;SDS011;5316;49.538;8.352;2022-12-05T02:12:48;36.17;;;20.57;;
10535;SDS011;5316;49.538;8.352;2022-12-05T02:15:20;35.93;;;20.03;;
10535;SDS011;5316;49.538;8.352;2022-12-05T02:17:54;36.13;;;20.37;;
10535;SDS011;5316;49.538;8.352;2022-12-05T02:20:31;41.67;;;21.20;;
10535;SDS011;5316;49.538;8.352;2022-12-05T02:23:20;38.47;;;20.83;;
10535;SDS011;5316;49.538;8.352;2022-12-05T02:29:24;35.97;;;20.53;;
10535;SDS011;5316;49.538;8.352;2022-12-05T02:32:02;35.13;;;20.57;;
10535;SDS011;5316;49.538;8.352;2022-12-05T02:34:33;37.77;;;20.30;;
10535;SDS011;5316;49.538;8.352;2022-12-05T02:37:08;37.43;;;20.20;;
10535;SDS011;5316;49.538;8.352;2022-12-05T02:39:40;37.73;;;20.00;;
10535;SDS011;5316;49.538;8.352;2022-12-05T02:42:12;41.23;;;21.10;;
10535;SDS011;5316;49.538;8.352;2022-12-05T02:44:44;35.30;;;20.20;;
10535;SDS011;5316;49.538;8.352;2022-12-05T02:47:16;37.23;;;20.77;;
10535;SDS011;5316;49.538;8.352;2022-12-05T02:49:46;32.43;;;18.80;;
10535;SDS011;5316;49.538;8.352;2022-12-05T02:52:15;34.77;;;19.43;;
10535;SDS011;5316;49.538;8.352;2022-12-05T02:54:43;33.53;;;18.67;;
10535;SDS011;5316;49.538;8.352;2022-12-05T02:57:13;37.20;;;18.67;;
10535;SDS011;5316;49.538;8.352;2022-12-05T02:59:41;36.50;;;20.30;;
10535;SDS011;5316;49.538;8.352;2022-12-05T03:02:19;37.67;;;20.10;;
10535;SDS011;5316;49.538;8.352;2022-12-05T03:04:49;39.87;;;21.10;;
10535;SDS011;5316;49.538;8.352;2022-12-05T03:07:16;34.03;;;20.10;;
10535;SDS011;5316;49.538;8.352;2022-12-05T03:09:46;37.50;;;20.93;;
10535;SDS011;5316;49.538;8.352;2022-12-05T03:12:17;37.83;;;19.57;;
10535;SDS011;5316;49.538;8.352;2022-12-05T03:14:47;37.30;;;20.17;;
10535;SDS011;5316;49.538;8.352;2022-12-05T03:17:19;40.70;;;21.30;;
10535;SDS011;5316;49.538;8.352;2022-12-05T03:19:53;41.07;;;20.43;;
10535;SDS011;5316;49.538;8.352;2022-12-05T03:22:23;38.30;;;20.77;;
10535;SDS011;5316;49.538;8.352;2022-12-05T03:24:55;40.50;;;21.33;;
10535;SDS011;5316;49.538;8.352;2022-12-05T03:27:24;39.53;;;20.57;;
10535;SDS011;5316;49.538;8.352;2022-12-05T03:29:56;40.03;;;21.30;;
10535;SDS011;5316;49.538;8.352;2022-12-05T03:32:28;43.93;;;21.37;;
10535;SDS011;5316;49.538;8.352;2022-12-05T03:35:10;37.70;;;20.37;;
10535;SDS011;5316;49.538;8.352;2022-12-05T03:37:44;43.67;;;21.27;;
10535;SDS011;5316;49.538;8.352;2022-12-05T03:40:22;41.93;;;21.80;;
10535;SDS011;5316;49.538;8.352;2022-12-05T03:42:56;40.03;;;20.33;;
10535;SDS011;5316;49.538;8.352;2022-12-05T03:45:28;41.53;;;20.70;;
10535;SDS011;5316;49.538;8.352;2022-12-05T03:48:03;45.93;;;21.80;;
10535;SDS011;5316;49.538;8.352;2022-12-05T03:50:36;42.47;;;22.13;;
10535;SDS011;5316;49.538;8.352;2022-12-05T03:53:07;41.60;;;21.63;;
10535;SDS011;5316;49.538;8.352;2022-12-05T03:55:38;38.70;;;20.73;;
10535;SDS011;5316;49.538;8.352;2022-12-05T03:58:07;38.37;;;20.67;;
10535;SDS011;5316;49.538;8.352;2022-12-05T04:00:41;40.40;;;20.67;;
10535;SDS011;5316;49.538;8.352;2022-12-05T04:03:14;41.93;;;21.40;;
10535;SDS011;5316;49.538;8.352;2022-12-05T04:05:45;37.70;;;21.07;;
10535;SDS011;5316;49.538;8.352;2022-12-05T04:08:18;41.03;;;21.90;;
10535;SDS011;5316;49.538;8.352;2022-12-05T04:10:48;36.97;;;21.00;;
10535;SDS011;5316;49.538;8.352;2022-12-05T04:13:19;40.70;;;20.97;;
10535;SDS011;5316;49.538;8.352;2022-12-05T04:15:52;39.23;;;21.03;;
10535;SDS011;5316;49.538;8.352;2022-12-05T04:18:44;38.90;;;20.60;;
10535;SDS011;5316;49.538;8.352;2022-12-05T04:21:16;41.30;;;21.33;;
10535;SDS011;5316;49.538;8.352;2022-12-05T04:24:03;40.57;;;21.20;;
10535;SDS011;5316;49.538;8.352;2022-12-05T04:26:49;39.63;;;19.97;;
10535;SDS011;5316;49.538;8.352;2022-12-05T04:29:24;41.20;;;21.67;;
10535;SDS011;5316;49.538;8.352;2022-12-05T04:31:57;39.50;;;20.43;;
10535;SDS011;5316;49.538;8.352;2022-12-05T04:34:30;36.33;;;21.53;;
10535;SDS011;5316;49.538;8.352;2022-12-05T04:37:01;35.67;;;19.40;;
10535;SDS011;5316;49.538;8.352;2022-12-05T04:39:32;41.30;;;21.10;;
10535;SDS011;5316;49.538;8.352;2022-12-05T04:42:05;37.60;;;20.17;;
10535;SDS011;5316;49.538;8.352;2022-12-05T04:44:37;34.90;;;20.60;;
10535;SDS011;5316;49.538;8.352;2022-12-05T04:47:08;36.77;;;20.10;;
10535;SDS011;5316;49.538;8.352;2022-12-05T04:49:40;34.60;;;19.57;;
10535;SDS011;5316;49.538;8.352;2022-12-05T04:52:10;36.50;;;19.97;;
10535;SDS011;5316;49.538;8.352;2022-12-05T04:54:39;36.77;;;19.63;;
10535;SDS011;5316;49.538;8.352;2022-12-05T04:57:09;39.83;;;19.83;;
10535;SDS011;5316;49.538;8.352;2022-12-05T04:59:40;39.10;;;20.17;;
10535;SDS011;5316;49.538;8.352;2022-12-05T05:02:16;38.60;;;20.17;;
10535;SDS011;5316;49.538;8.352;2022-12-05T05:04:48;39.77;;;20.27;;
10535;SDS011;5316;49.538;8.352;2022-12-05T05:07:17;40.03;;;20.20;;
10535;SDS011;5316;49.538;8.352;2022-12-05T05:09:45;38.60;;;19.50;;
10535;SDS011;5316;49.538;8.352;2022-12-05T05:12:12;42.93;;;21.23;;
10535;SDS011;5316;49.538;8.352;2022-12-05T05:14:39;39.47;;;21.13;;
10535;SDS011;5316;49.538;8.352;2022-12-05T05:17:05;39.53;;;21.10;;
10535;SDS011;5316;49.538;8.352;2022-12-05T05:19:32;37.93;;;20.00;;
10535;SDS011;5316;49.538;8.352;2022-12-05T05:22:00;40.93;;;20.87;;
10535;SDS011;5316;49.538;8.352;2022-12-05T05:24:31;43.70;;;20.00;;
10535;SDS011;5316;49.538;8.352;2022-12-05T05:26:58;37.67;;;19.73;;
10535;SDS011;5316;49.538;8.352;2022-12-05T05:29:25;36.80;;;20.27;;
10535;SDS011;5316;49.538;8.352;2022-12-05T05:31:51;41.47;;;21.13;;
10535;SDS011;5316;49.538;8.352;2022-12-05T05:34:18;42.90;;;21.90;;
10535;SDS011;5316;49.538;8.352;2022-12-05T05:36:49;40.23;;;21.03;;
10535;SDS011;5316;49.538;8.352;2022-12-05T05:39:18;44.23;;;21.37;;
10535;SDS011;5316;49.538;8.352;2022-12-05T05:41:45;41.13;;;21.13;;
10535;SDS011;5316;49.538;8.352;2022-12-05T05:44:12;40.23;;;20.70;;
10535;SDS011;5316;49.538;8.352;2022-12-05T05:46:39;44.50;;;22.40;;
10535;SDS011;5316;49.538;8.352;2022-12-05T05:49:06;43.13;;;20.67;;
10535;SDS011;5316;49.538;8.352;2022-12-05T05:51:32;46.60;;;21.70;;
10535;SDS011;5316;49.538;8.352;2022-12-05T05:53:59;40.47;;;19.90;;
10535;SDS011;5316;49.538;8.352;2022-12-05T05:56:27;40.07;;;20.60;;
10535;SDS011;5316;49.538;8.352;2022-12-05T05:58:55;40.53;;;20.37;;
10535;SDS011;5316;49.538;8.352;2022-12-05T06:01:23;41.30;;;20.07;;
10535;SDS011;5316;49.538;8.352;2022-12-05T06:03:51;45.57;;;20.67;;
10535;SDS011;5316;49.538;8.352;2022-12-05T06:06:18;41.37;;;20.93;;
10535;SDS011;5316;49.538;8.352;2022-12-05T06:08:46;45.60;;;21.93;;
10535;SDS011;5316;49.538;8.352;2022-12-05T06:11:14;43.97;;;20.93;;
10535;SDS011;5316;49.538;8.352;2022-12-05T06:13:43;42.93;;;20.97;;
10535;SDS011;5316;49.538;8.352;2022-12-05T06:16:11;46.43;;;22.27;;
10535;SDS011;5316;49.538;8.352;2022-12-05T06:18:38;45.63;;;22.40;;
10535;SDS011;5316;49.538;8.352;2022-12-05T06:21:06;43.33;;;21.50;;
10535;SDS011;5316;49.538;8.352;2022-12-05T06:23:33;44.70;;;21.60;;
10535;SDS011;5316;49.538;8.352;2022-12-05T06:26:00;47.57;;;22.40;;
10535;SDS011;5316;49.538;8.352;2022-12-05T06:28:36;51.33;;;23.47;;
10535;SDS011;5316;49.538;8.352;2022-12-05T06:31:07;47.40;;;23.27;;
10535;SDS011;5316;49.538;8.352;2022-12-05T06:33:34;45.17;;;22.53;;
10535;SDS011;5316;49.538;8.352;2022-12-05T06:36:02;47.70;;;22.20;;
10535;SDS011;5316;49.538;8.352;2022-12-05T06:38:30;42.20;;;22.27;;
10535;SDS011;5316;49.538;8.352;2022-12-05T06:40:57;44.60;;;22.00;;
10535;SDS011;5316;49.538;8.352;2022-12-05T06:43:24;44.07;;;21.40;;
10535;SDS011;5316;49.538;8.352;2022-12-05T06:45:51;42.60;;;21.33;;
10535;SDS011;5316;49.538;8.352;2022-12-05T06:48:23;43.77;;;22.43;;
10535;SDS011;5316;49.538;8.352;2022-12-05T06:50:50;50.70;;;26.23;;
10535;SDS011;5316;49.538;8.352;2022-12-05T06:53:18;44.47;;;24.90;;
10535;SDS011;5316;49.538;8.352;2022-12-05T06:55:53;43.87;;;23.90;;
10535;SDS011;5316;49.538;8.352;2022-12-05T06:58:21;74.70;;;43.77;;
10535;SDS011;5316;49.538;8.352;2022-12-05T07:00:48;78.03;;;42.20;;
10535;SDS011;5316;49.538;8.352;2022-12-05T07:03:34;76.87;;;40.47;;
10535;SDS011;5316;49.538;8.352;2022-12-05T07:06:01;62.83;;;37.00;;
10535;SDS011;5316;49.538;8.352;2022-12-05T07:08:29;56.53;;;29.50;;
10535;SDS011;5316;49.538;8.352;2022-12-05T07:10:56;49.87;;;28.70;;
10535;SDS011;5316;49.538;8.352;2022-12-05T07:13:24;45.97;;;27.73;;
10535;SDS011;5316;49.538;8.352;2022-12-05T07:15:52;42.83;;;26.33;;
10535;SDS011;5316;49.538;8.352;2022-12-05T07:18:19;43.43;;;24.37;;
10535;SDS011;5316;49.538;8.352;2022-12-05T07:20:54;40.93;;;22.40;;
10535;SDS011;5316;49.538;8.352;2022-12-05T07:23:21;37.83;;;20.73;;
10535;SDS011;5316;49.538;8.352;2022-12-05T07:25:48;41.77;;;22.87;;
10535;SDS011;5316;49.538;8.352;2022-12-05T07:28:15;38.67;;;21.50;;
10535;SDS011;5316;49.538;8.352;2022-12-05T07:30:42;40.33;;;21.37;;
10535;SDS011;5316;49.538;8.352;2022-12-05T07:33:09;40.30;;;22.80;;
10535;SDS011;5316;49.538;8.352;2022-12-05T07:35:35;38.03;;;22.27;;
10535;SDS011;5316;49.538;8.352;2022-12-05T07:38:04;39.50;;;21.73;;
10535;SDS011;5316;49.538;8.352;2022-12-05T07:40:31;43.67;;;21.87;;
10535;SDS011;5316;49.538;8.352;2022-12-05T07:42:58;41.20;;;23.03;;
10535;SDS011;5316;49.538;8.352;2022-12-05T07:45:24;38.70;;;20.97;;
10535;SDS011;5316;49.538;8.352;2022-12-05T07:47:51;42.07;;;21.93;;
10535;SDS011;5316;49.538;8.352;2022-12-05T07:50:18;46.13;;;22.90;;
10535;SDS011;5316;49.538;8.352;2022-12-05T07:52:45;42.63;;;21.93;;
10535;SDS011;5316;49.538;8.352;2022-12-05T07:55:13;41.97;;;22.73;;
10535;SDS011;5316;49.538;8.352;2022-12-05T07:57:40;43.53;;;22.80;;
10535;SDS011;5316;49.538;8.352;2022-12-05T08:00:07;46.67;;;22.57;;
10535;SDS011;5316;49.538;8.352;2022-12-05T08:02:34;44.03;;;22.33;;
10535;SDS011;5316;49.538;8.352;2022-12-05T08:05:04;43.73;;;21.60;;
10535;SDS011;5316;49.538;8.352;2022-12-05T08:07:31;44.80;;;22.40;;
10535;SDS011;5316;49.538;8.352;2022-12-05T08:09:58;45.67;;;21.77;;
10535;SDS011;5316;49.538;8.352;2022-12-05T08:12:26;46.97;;;20.90;;
10535;SDS011;5316;49.538;8.352;2022-12-05T08:14:53;49.77;;;22.23;;
10535;SDS011;5316;49.538;8.352;2022-12-05T08:17:20;44.67;;;21.80;;
10535;SDS011;5316;49.538;8.352;2022-12-05T08:19:47;44.93;;;20.93;;
10535;SDS011;5316;49.538;8.352;2022-12-05T08:22:13;43.93;;;20.67;;
10535;SDS011;5316;49.538;8.352;2022-12-05T08:24:40;42.00;;;21.80;;
10535;SDS011;5316;49.538;8.352;2022-12-05T08:27:07;40.10;;;21.87;;
10535;SDS011;5316;49.538;8.352;2022-12-05T08:29:35;47.13;;;22.40;;
10535;SDS011;5316;49.538;8.352;2022-12-05T08:32:02;40.90;;;20.90;;
10535;SDS011;5316;49.538;8.352;2022-12-05T08:34:30;38.07;;;20.20;;
10535;SDS011;5316;49.538;8.352;2022-12-05T08:36:56;42.07;;;21.90;;
10535;SDS011;5316;49.538;8.352;2022-12-05T08:39:23;91.73;;;47.87;;
10535;SDS011;5316;49.538;8.352;2022-12-05T08:41:52;43.87;;;22.33;;
10535;SDS011;5316;49.538;8.352;2022-12-05T08:44:19;42.80;;;21.30;;
10535;SDS011;5316;49.538;8.352;2022-12-05T08:46:47;40.97;;;20.97;;
10535;SDS011;5316;49.538;8.352;2022-12-05T08:49:15;34.80;;;19.03;;
10535;SDS011;5316;49.538;8.352;2022-12-05T08:51:46;38.77;;;19.57;;
10535;SDS011;5316;49.538;8.352;2022-12-05T08:54:13;37.73;;;19.70;;
10535;SDS011;5316;49.538;8.352;2022-12-05T08:56:40;77.57;;;43.07;;
10535;SDS011;5316;49.538;8.352;2022-12-05T08:59:07;58.00;;;32.03;;
10535;SDS011;5316;49.538;8.352;2022-12-05T09:01:34;39.10;;;21.00;;
10535;SDS011;5316;49.538;8.352;2022-12-05T09:04:04;36.73;;;19.70;;
10535;SDS011;5316;49.538;8.352;2022-12-05T09:06:32;32.23;;;18.53;;
10535;SDS011;5316;49.538;8.352;2022-12-05T09:09:00;33.73;;;19.13;;
10535;SDS011;5316;49.538;8.352;2022-12-05T09:11:31;31.27;;;18.67;;
10535;SDS011;5316;49.538;8.352;2022-12-05T09:13:59;33.03;;;18.33;;
10535;SDS011;5316;49.538;8.352;2022-12-05T09:16:27;35.27;;;17.50;;
10535;SDS011;5316;49.538;8.352;2022-12-05T09:18:56;35.07;;;18.43;;
10535;SDS011;5316;49.538;8.352;2022-12-05T09:21:25;36.20;;;18.47;;
10535;SDS011;5316;49.538;8.352;2022-12-05T09:23:53;32.63;;;19.10;;
10535;SDS011;5316;49.538;8.352;2022-12-05T09:26:21;32.17;;;18.63;;
10535;SDS011;5316;49.538;8.352;2022-12-05T09:28:50;31.83;;;19.27;;
10535;SDS011;5316;49.538;8.352;2022-12-05T09:31:18;33.60;;;19.87;;
10535;SDS011;5316;49.538;8.352;2022-12-05T09:33:46;33.93;;;19.20;;
10535;SDS011;5316;49.538;8.352;2022-12-05T09:36:14;35.07;;;19.60;;
10535;SDS011;5316;49.538;8.352;2022-12-05T09:38:43;30.47;;;18.20;;
10535;SDS011;5316;49.538;8.352;2022-12-05T09:41:13;33.20;;;19.53;;
10535;SDS011;5316;49.538;8.352;2022-12-05T09:44:12;33.23;;;19.77;;
10535;SDS011;5316;49.538;8.352;2022-12-05T09:46:45;33.97;;;20.77;;
10535;SDS011;5316;49.538;8.352;2022-12-05T09:49:18;38.60;;;20.70;;
10535;SDS011;5316;49.538;8.352;2022-12-05T09:51:46;33.87;;;20.33;;
10535;SDS011;5316;49.538;8.352;2022-12-05T09:54:17;31.83;;;19.17;;
10535;SDS011;5316;49.538;8.352;2022-12-05T09:56:44;32.40;;;19.43;;
10535;SDS011;5316;49.538;8.352;2022-12-05T09:59:17;36.97;;;20.43;;
10535;SDS011;5316;49.538;8.352;2022-12-05T10:01:47;35.57;;;20.03;;
10535;SDS011;5316;49.538;8.352;2022-12-05T10:04:23;34.70;;;20.37;;
10535;SDS011;5316;49.538;8.352;2022-12-05T10:07:10;34.70;;;20.03;;
10535;SDS011;5316;49.538;8.352;2022-12-05T10:09:47;34.23;;;19.90;;
10535;SDS011;5316;49.538;8.352;2022-12-05T10:12:24;35.37;;;20.50;;
10535;SDS011;5316;49.538;8.352;2022-12-05T10:15:10;33.73;;;20.57;;
10535;SDS011;5316;49.538;8.352;2022-12-05T10:17:41;34.30;;;20.33;;
10535;SDS011;5316;49.538;8.352;2022-12-05T10:20:12;34.43;;;19.90;;
10535;SDS011;5316;49.538;8.352;2022-12-05T10:22:44;30.53;;;19.27;;
10535;SDS011;5316;49.538;8.352;2022-12-05T10:25:17;34.50;;;19.83;;
10535;SDS011;5316;49.538;8.352;2022-12-05T10:27:47;34.03;;;20.03;;
10535;SDS011;5316;49.538;8.352;2022-12-05T10:30:17;32.40;;;19.67;;
10535;SDS011;5316;49.538;8.352;2022-12-05T10:32:49;33.63;;;19.80;;
10535;SDS011;5316;49.538;8.352;2022-12-05T10:35:20;32.63;;;18.50;;
10535;SDS011;5316;49.538;8.352;2022-12-05T10:37:48;37.13;;;20.80;;
10535;SDS011;5316;49.538;8.352;2022-12-05T10:40:19;36.37;;;19.70;;
10535;SDS011;5316;49.538;8.352;2022-12-05T10:42:46;33.87;;;20.30;;
10535;SDS011;5316;49.538;8.352;2022-12-05T10:45:15;30.70;;;18.47;;
10535;SDS011;5316;49.538;8.352;2022-12-05T10:47:44;31.93;;;18.87;;
10535;SDS011;5316;49.538;8.352;2022-12-05T10:50:21;32.00;;;20.07;;
10535;SDS011;5316;49.538;8.352;2022-12-05T10:52:50;32.57;;;19.90;;
10535;SDS011;5316;49.538;8.352;2022-12-05T10:55:28;32.90;;;21.70;;
10535;SDS011;5316;49.538;8.352;2022-12-05T10:58:09;31.07;;;19.40;;
10535;SDS011;5316;49.538;8.352;2022-12-05T11:00:38;30.90;;;19.87;;
10535;SDS011;5316;49.538;8.352;2022-12-05T11:03:19;33.83;;;19.87;;
10535;SDS011;5316;49.538;8.352;2022-12-05T11:05:50;33.07;;;19.70;;
10535;SDS011;5316;49.538;8.352;2022-12-05T11:08:22;32.13;;;20.07;;
10535;SDS011;5316;49.538;8.352;2022-12-05T11:10:58;30.10;;;19.07;;
10535;SDS011;5316;49.538;8.352;2022-12-05T11:13:31;34.37;;;20.13;;
10535;SDS011;5316;49.538;8.352;2022-12-05T11:15:58;31.70;;;19.10;;
10535;SDS011;5316;49.538;8.352;2022-12-05T11:18:27;32.80;;;19.50;;
10535;SDS011;5316;49.538;8.352;2022-12-05T11:20:56;33.93;;;20.30;;
10535;SDS011;5316;49.538;8.352;2022-12-05T11:23:34;35.17;;;21.97;;
10535;SDS011;5316;49.538;8.352;2022-12-05T11:26:03;31.20;;;20.67;;
10535;SDS011;5316;49.538;8.352;2022-12-05T11:28:40;31.23;;;19.80;;
10535;SDS011;5316;49.538;8.352;2022-12-05T11:31:17;32.23;;;20.53;;
10535;SDS011;5316;49.538;8.352;2022-12-05T11:33:57;30.83;;;19.17;;
10535;SDS011;5316;49.538;8.352;2022-12-05T11:36:31;30.23;;;19.67;;
10535;SDS011;5316;49.538;8.352;2022-12-05T11:39:04;31.77;;;18.83;;
10535;SDS011;5316;49.538;8.352;2022-12-05T11:41:36;28.77;;;18.43;;
10535;SDS011;5316;49.538;8.352;2022-12-05T11:44:18;42.67;;;26.13;;
10535;SDS011;5316;49.538;8.352;2022-12-05T11:46:57;31.60;;;19.83;;
10535;SDS011;5316;49.538;8.352;2022-12-05T11:49:40;32.63;;;19.47;;
10535;SDS011;5316;49.538;8.352;2022-12-05T11:52:27;28.10;;;17.73;;
10535;SDS011;5316;49.538;8.352;2022-12-05T11:55:09;30.13;;;19.07;;
10535;SDS011;5316;49.538;8.352;2022-12-05T11:57:51;27.60;;;17.67;;
10535;SDS011;5316;49.538;8.352;2022-12-05T12:00:40;31.27;;;19.30;;
10535;SDS011;5316;49.538;8.352;2022-12-05T12:03:29;25.67;;;17.50;;
10535;SDS011;5316;49.538;8.352;2022-12-05T12:06:19;27.63;;;18.30;;
10535;SDS011;5316;49.538;8.352;2022-12-05T12:09:00;27.40;;;18.47;;
10535;SDS011;5316;49.538;8.352;2022-12-05T12:11:41;28.60;;;17.37;;
10535;SDS011;5316;49.538;8.352;2022-12-05T12:14:17;25.43;;;18.10;;
10535;SDS011;5316;49.538;8.352;2022-12-05T12:16:49;23.67;;;16.60;;
10535;SDS011;5316;49.538;8.352;2022-12-05T12:19:30;25.93;;;17.00;;
10535;SDS011;5316;49.538;8.352;2022-12-05T12:22:21;26.63;;;16.73;;
10535;SDS011;5316;49.538;8.352;2022-12-05T12:25:11;28.17;;;16.40;;
10535;SDS011;5316;49.538;8.352;2022-12-05T12:27:50;26.63;;;16.47;;
10535;SDS011;5316;49.538;8.352;2022-12-05T12:30:26;28.03;;;16.90;;
10535;SDS011;5316;49.538;8.352;2022-12-05T12:33:00;37.93;;;25.27;;
10535;SDS011;5316;49.538;8.352;2022-12-05T12:35:33;22.50;;;15.93;;
10535;SDS011;5316;49.538;8.352;2022-12-05T12:41:04;24.77;;;17.10;;
10535;SDS011;5316;49.538;8.352;2022-12-05T12:43:40;25.80;;;16.30;;
10535;SDS011;5316;49.538;8.352;2022-12-05T12:46:17;23.77;;;16.10;;
10535;SDS011;5316;49.538;8.352;2022-12-05T12:49:10;22.03;;;15.77;;
10535;SDS011;5316;49.538;8.352;2022-12-05T12:51:49;23.17;;;15.87;;
10535;SDS011;5316;49.538;8.352;2022-12-05T12:54:21;22.83;;;16.10;;
10535;SDS011;5316;49.538;8.352;2022-12-05T12:57:07;24.60;;;15.73;;
10535;SDS011;5316;49.538;8.352;2022-12-05T12:59:46;23.63;;;16.23;;
10535;SDS011;5316;49.538;8.352;2022-12-05T13:02:24;21.93;;;15.57;;
10535;SDS011;5316;49.538;8.352;2022-12-05T13:04:58;22.57;;;15.70;;
10535;SDS011;5316;49.538;8.352;2022-12-05T13:07:30;23.83;;;16.57;;
10535;SDS011;5316;49.538;8.352;2022-12-05T13:10:05;22.80;;;16.20;;
10535;SDS011;5316;49.538;8.352;2022-12-05T13:12:38;22.07;;;15.37;;
10535;SDS011;5316;49.538;8.352;2022-12-05T13:15:09;21.77;;;15.83;;
10535;SDS011;5316;49.538;8.352;2022-12-05T13:17:42;22.20;;;15.33;;
10535;SDS011;5316;49.538;8.352;2022-12-05T13:20:13;25.97;;;19.43;;
10535;SDS011;5316;49.538;8.352;2022-12-05T13:22:42;23.17;;;15.87;;
10535;SDS011;5316;49.538;8.352;2022-12-05T13:25:12;22.33;;;14.03;;
10535;SDS011;5316;49.538;8.352;2022-12-05T13:27:39;34.60;;;21.67;;
10535;SDS011;5316;49.538;8.352;2022-12-05T13:30:20;25.20;;;15.67;;
10535;SDS011;5316;49.538;8.352;2022-12-05T13:32:55;21.90;;;14.47;;
10535;SDS011;5316;49.538;8.352;2022-12-05T13:35:26;18.97;;;13.53;;
10535;SDS011;5316;49.538;8.352;2022-12-05T13:38:19;17.23;;;12.47;;
10535;SDS011;5316;49.538;8.352;2022-12-05T13:41:04;15.40;;;11.17;;
10535;SDS011;5316;49.538;8.352;2022-12-05T13:43:51;16.13;;;11.17;;
10535;SDS011;5316;49.538;8.352;2022-12-05T13:46:21;15.17;;;10.87;;
10535;SDS011;5316;49.538;8.352;2022-12-05T13:48:56;14.73;;;9.37;;
10535;SDS011;5316;49.538;8.352;2022-12-05T13:51:27;12.73;;;9.07;;
10535;SDS011;5316;49.538;8.352;2022-12-05T13:53:58;10.70;;;7.83;;
10535;SDS011;5316;49.538;8.352;2022-12-05T13:56:45;11.27;;;8.00;;
10535;SDS011;5316;49.538;8.352;2022-12-05T14:11:12;4.03;;;3.73;;
10535;SDS011;5316;49.538;8.352;2022-12-05T14:13:40;3.77;;;3.37;;
10535;SDS011;5316;49.538;8.352;2022-12-05T14:22:25;2.40;;;2.20;;
10535;SDS011;5316;49.538;8.352;2022-12-05T14:25:35;1.80;;;1.70;;
10535;SDS011;5316;49.538;8.352;2022-12-05T14:28:18;2.40;;;1.70;;
10535;SDS011;5316;49.538;8.352;2022-12-05T14:31:03;2.13;;;1.70;;
10535;SDS011;5316;49.538;8.352;2022-12-05T14:33:43;1.83;;;1.73;;
10535;SDS011;5316;49.538;8.352;2022-12-05T14:36:12;1.80;;;1.70;;
10535;SDS011;5316;49.538;8.352;2022-12-05T14:38:43;2.13;;;1.70;;
10535;SDS011;5316;49.538;8.352;2022-12-05T14:41:11;2.80;;;1.53;;
10535;SDS011;5316;49.538;8.352;2022-12-05T14:43:39;1.50;;;1.40;;
10535;SDS011;5316;49.538;8.352;2022-12-05T14:46:18;39.53;;;25.20;;
10535;SDS011;5316;49.538;8.352;2022-12-05T14:48:49;2.50;;;2.27;;
10535;SDS011;5316;49.538;8.352;2022-12-05T14:54:12;1.70;;;1.60;;
10535;SDS011;5316;49.538;8.352;2022-12-05T14:56:41;1.50;;;1.40;;
10535;SDS011;5316;49.538;8.352;2022-12-05T14:59:13;1.67;;;1.57;;
10535;SDS011;5316;49.538;8.352;2022-12-05T15:01:48;2.70;;;1.80;;
10535;SDS011;5316;49.538;8.352;2022-12-05T15:04:17;1.57;;;1.47;;
10535;SDS011;5316;49.538;8.352;2022-12-05T15:06:49;1.70;;;1.57;;
10535;SDS011;5316;49.538;8.352;2022-12-05T15:12:20;2.07;;;1.77;;
10535;SDS011;5316;49.538;8.352;2022-12-05T15:14:52;1.70;;;1.60;;
10535;SDS011;5316;49.538;8.352;2022-12-05T15:17:25;2.00;;;1.90;;
10535;SDS011;5316;49.538;8.352;2022-12-05T15:20:02;1.70;;;1.57;;
10535;SDS011;5316;49.538;8.352;2022-12-05T15:22:34;3.30;;;1.87;;
10535;SDS011;5316;49.538;8.352;2022-12-05T15:25:23;2.20;;;1.73;;
10535;SDS011;5316;49.538;8.352;2022-12-05T15:27:56;2.47;;;2.00;;
10535;SDS011;5316;49.538;8.352;2022-12-05T15:30:25;2.33;;;2.03;;
10535;SDS011;5316;49.538;8.352;2022-12-05T15:32:54;2.93;;;1.93;;